sensor_id;sensor_type;location;lat;lon;timestamp;pressure;altitude;pressure_sealevel;temperature;humidity
38630;BME280;24384;51.988;4.644;2023-05-22T00:00:05;101695.97;;;14.90;81.39
38630;BME280;24384;51.988;4.644;2023-05-22T00:02:34;101694.91;;;14.70;81.48
38630;BME280;24384;51.988;4.644;2023-05-22T00:05:04;101685.16;;;14.71;82.19
38630;BME280;24384;51.988;4.644;2023-05-22T00:07:30;101696.25;;;14.82;81.69
38630;BME280;24384;51.988;4.644;2023-05-22T00:09:56;101683.53;;;14.66;82.49
38630;BME280;24384;51.988;4.644;2023-05-22T00:12:21;101689.31;;;14.78;82.34
38630;BME280;24384;51.988;4.644;2023-05-22T00:14:46;101695.63;;;14.75;82.77
38630;BME280;24384;51.988;4.644;2023-05-22T00:17:11;101686.75;;;14.75;82.10
38630;BME280;24384;51.988;4.644;2023-05-22T00:19:41;101693.25;;;14.67;82.96
38630;BME280;24384;51.988;4.644;2023-05-22T00:22:08;101691.84;;;14.81;82.62
38630;BME280;24384;51.988;4.644;2023-05-22T00:24:33;101694.16;;;14.66;83.31
38630;BME280;24384;51.988;4.644;2023-05-22T00:26:59;101697.91;;;14.59;84.16
38630;BME280;24384;51.988;4.644;2023-05-22T00:29:25;101694.91;;;14.45;84.46
38630;BME280;24384;51.988;4.644;2023-05-22T00:31:50;101699.28;;;14.46;84.56
38630;BME280;24384;51.988;4.644;2023-05-22T00:34:16;101704.81;;;14.40;85.18
38630;BME280;24384;51.988;4.644;2023-05-22T00:36:41;101711.63;;;14.47;84.38
38630;BME280;24384;51.988;4.644;2023-05-22T00:39:06;101689.16;;;14.57;83.90
38630;BME280;24384;51.988;4.644;2023-05-22T00:41:31;101684.06;;;14.51;84.39
38630;BME280;24384;51.988;4.644;2023-05-22T00:44:00;101675.41;;;14.71;83.66
38630;BME280;24384;51.988;4.644;2023-05-22T00:46:25;101674.53;;;14.71;83.21
38630;BME280;24384;51.988;4.644;2023-05-22T00:48:50;101670.69;;;14.54;84.07
38630;BME280;24384;51.988;4.644;2023-05-22T00:51:18;101667.13;;;14.55;84.00
38630;BME280;24384;51.988;4.644;2023-05-22T00:53:45;101661.84;;;14.54;83.97
38630;BME280;24384;51.988;4.644;2023-05-22T00:56:11;101657.47;;;14.53;84.07
38630;BME280;24384;51.988;4.644;2023-05-22T00:58:37;101666.34;;;14.51;84.37
38630;BME280;24384;51.988;4.644;2023-05-22T01:01:02;101664.56;;;14.52;84.06
38630;BME280;24384;51.988;4.644;2023-05-22T01:03:29;101662.78;;;14.53;84.03
38630;BME280;24384;51.988;4.644;2023-05-22T01:05:56;101658.03;;;14.37;85.33
38630;BME280;24384;51.988;4.644;2023-05-22T01:08:21;101649.72;;;14.46;84.92
38630;BME280;24384;51.988;4.644;2023-05-22T01:10:52;101641.75;;;14.46;83.89
38630;BME280;24384;51.988;4.644;2023-05-22T01:13:35;101626.13;;;14.39;84.32
38630;BME280;24384;51.988;4.644;2023-05-22T01:16:33;101632.50;;;14.33;84.92
38630;BME280;24384;51.988;4.644;2023-05-22T01:30:46;101622.88;;;13.80;88.99
38630;BME280;24384;51.988;4.644;2023-05-22T01:33:16;101627.00;;;13.89;89.30
38630;BME280;24384;51.988;4.644;2023-05-22T01:35:46;101621.28;;;14.01;88.32
38630;BME280;24384;51.988;4.644;2023-05-22T01:38:13;101619.47;;;14.02;88.30
38630;BME280;24384;51.988;4.644;2023-05-22T01:40:39;101606.31;;;13.99;88.81
38630;BME280;24384;51.988;4.644;2023-05-22T01:43:05;101607.97;;;14.03;88.23
38630;BME280;24384;51.988;4.644;2023-05-22T01:45:31;101603.19;;;14.12;88.44
38630;BME280;24384;51.988;4.644;2023-05-22T01:47:57;101597.72;;;14.17;88.01
38630;BME280;24384;51.988;4.644;2023-05-22T01:50:22;101593.31;;;14.16;88.11
38630;BME280;24384;51.988;4.644;2023-05-22T01:55:51;101592.56;;;14.12;88.39
38630;BME280;24384;51.988;4.644;2023-05-22T02:01:07;101600.59;;;14.11;88.42
38630;BME280;24384;51.988;4.644;2023-05-22T02:03:36;101601.34;;;14.14;88.35
38630;BME280;24384;51.988;4.644;2023-05-22T02:06:05;101596.34;;;14.05;88.97
38630;BME280;24384;51.988;4.644;2023-05-22T02:08:32;101604.19;;;14.08;89.46
38630;BME280;24384;51.988;4.644;2023-05-22T02:10:59;101594.88;;;13.98;89.41
38630;BME280;24384;51.988;4.644;2023-05-22T02:13:24;101579.84;;;14.22;88.10
38630;BME280;24384;51.988;4.644;2023-05-22T02:15:50;101578.97;;;14.22;87.77
38630;BME280;24384;51.988;4.644;2023-05-22T02:18:16;101583.19;;;14.02;88.29
38630;BME280;24384;51.988;4.644;2023-05-22T02:20:41;101589.09;;;13.85;88.86
38630;BME280;24384;51.988;4.644;2023-05-22T02:23:07;101588.78;;;13.94;88.57
38630;BME280;24384;51.988;4.644;2023-05-22T02:25:32;101581.53;;;14.00;88.31
38630;BME280;24384;51.988;4.644;2023-05-22T02:27:57;101574.38;;;14.02;88.20
38630;BME280;24384;51.988;4.644;2023-05-22T02:30:23;101579.22;;;13.90;88.65
38630;BME280;24384;51.988;4.644;2023-05-22T02:32:48;101585.38;;;13.91;89.36
38630;BME280;24384;51.988;4.644;2023-05-22T02:35:14;101595.59;;;13.76;89.51
38630;BME280;24384;51.988;4.644;2023-05-22T02:37:40;101598.84;;;13.85;89.61
38630;BME280;24384;51.988;4.644;2023-05-22T02:40:07;101598.09;;;13.81;89.32
38630;BME280;24384;51.988;4.644;2023-05-22T02:42:32;101602.72;;;13.74;89.77
38630;BME280;24384;51.988;4.644;2023-05-22T02:44:58;101614.59;;;13.89;89.61
38630;BME280;24384;51.988;4.644;2023-05-22T02:47:23;101606.50;;;13.94;88.92
38630;BME280;24384;51.988;4.644;2023-05-22T02:49:48;101608.34;;;13.92;88.21
38630;BME280;24384;51.988;4.644;2023-05-22T02:52:15;101601.25;;;13.92;88.54
38630;BME280;24384;51.988;4.644;2023-05-22T02:54:40;101606.00;;;13.83;89.17
38630;BME280;24384;51.988;4.644;2023-05-22T02:57:06;101592.47;;;13.90;89.15
38630;BME280;24384;51.988;4.644;2023-05-22T02:59:31;101589.28;;;14.06;88.48
38630;BME280;24384;51.988;4.644;2023-05-22T03:01:56;101592.69;;;14.09;87.59
38630;BME280;24384;51.988;4.644;2023-05-22T03:04:22;101588.78;;;13.94;87.48
38630;BME280;24384;51.988;4.644;2023-05-22T03:06:48;101579.66;;;13.78;88.68
38630;BME280;24384;51.988;4.644;2023-05-22T03:09:13;101587.41;;;13.84;88.19
38630;BME280;24384;51.988;4.644;2023-05-22T03:11:41;101598.25;;;13.76;88.27
38630;BME280;24384;51.988;4.644;2023-05-22T03:14:07;101598.72;;;13.63;89.30
38630;BME280;24384;51.988;4.644;2023-05-22T03:16:33;101581.94;;;13.62;89.37
38630;BME280;24384;51.988;4.644;2023-05-22T03:19:12;101593.06;;;13.73;89.45
38630;BME280;24384;51.988;4.644;2023-05-22T03:21:37;101596.34;;;13.80;88.57
38630;BME280;24384;51.988;4.644;2023-05-22T03:24:03;101587.72;;;13.75;88.98
38630;BME280;24384;51.988;4.644;2023-05-22T03:26:29;101587.72;;;13.75;89.28
38630;BME280;24384;51.988;4.644;2023-05-22T03:28:55;101583.31;;;13.74;90.20
38630;BME280;24384;51.988;4.644;2023-05-22T03:31:22;101590.53;;;13.70;91.00
38630;BME280;24384;51.988;4.644;2023-05-22T03:33:48;101584.94;;;13.78;89.97
38630;BME280;24384;51.988;4.644;2023-05-22T03:36:13;101586.28;;;13.65;90.85
38630;BME280;24384;51.988;4.644;2023-05-22T03:38:38;101583.56;;;13.66;90.67
38630;BME280;24384;51.988;4.644;2023-05-22T03:41:03;101582.66;;;13.67;91.11
38630;BME280;24384;51.988;4.644;2023-05-22T03:43:29;101565.63;;;13.74;90.93
38630;BME280;24384;51.988;4.644;2023-05-22T03:45:54;101572.75;;;13.72;91.45
38630;BME280;24384;51.988;4.644;2023-05-22T03:48:22;101573.63;;;13.73;92.31
38630;BME280;24384;51.988;4.644;2023-05-22T03:50:47;101578.00;;;13.74;92.91
38630;BME280;24384;51.988;4.644;2023-05-22T03:53:12;101571.38;;;13.87;91.76
38630;BME280;24384;51.988;4.644;2023-05-22T03:55:38;101570.44;;;13.88;91.86
38630;BME280;24384;51.988;4.644;2023-05-22T03:58:03;101568.63;;;13.90;92.38
38630;BME280;24384;51.988;4.644;2023-05-22T04:00:29;101578.59;;;13.82;93.13
38630;BME280;24384;51.988;4.644;2023-05-22T04:02:55;101585.50;;;13.88;93.23
38630;BME280;24384;51.988;4.644;2023-05-22T04:05:22;101577.25;;;13.95;92.49
38630;BME280;24384;51.988;4.644;2023-05-22T04:07:48;101578.94;;;13.98;92.93
38630;BME280;24384;51.988;4.644;2023-05-22T04:10:13;101585.13;;;13.99;92.76
38630;BME280;24384;51.988;4.644;2023-05-22T04:12:38;101577.72;;;14.07;91.62
38630;BME280;24384;51.988;4.644;2023-05-22T04:15:04;101576.88;;;14.06;91.81
38630;BME280;24384;51.988;4.644;2023-05-22T04:17:30;101573.31;;;14.07;92.15
38630;BME280;24384;51.988;4.644;2023-05-22T04:19:57;101567.97;;;14.09;91.97
38630;BME280;24384;51.988;4.644;2023-05-22T04:22:22;101573.09;;;13.88;92.43
38630;BME280;24384;51.988;4.644;2023-05-22T04:24:47;101572.72;;;13.99;92.69
38630;BME280;24384;51.988;4.644;2023-05-22T04:27:13;101580.28;;;14.10;92.41
38630;BME280;24384;51.988;4.644;2023-05-22T04:29:39;101583.75;;;14.12;92.50
38630;BME280;24384;51.988;4.644;2023-05-22T04:32:06;101586.25;;;14.17;92.28
38630;BME280;24384;51.988;4.644;2023-05-22T04:34:34;101591.59;;;14.15;92.16
38630;BME280;24384;51.988;4.644;2023-05-22T04:37:01;101595.69;;;14.24;92.20
38630;BME280;24384;51.988;4.644;2023-05-22T04:39:27;101585.56;;;14.35;91.92
38630;BME280;24384;51.988;4.644;2023-05-22T04:41:53;101591.56;;;14.40;91.40
38630;BME280;24384;51.988;4.644;2023-05-22T04:44:19;101585.28;;;14.43;91.55
38630;BME280;24384;51.988;4.644;2023-05-22T04:46:49;101581.34;;;14.53;90.66
38630;BME280;24384;51.988;4.644;2023-05-22T04:49:14;101580.09;;;14.40;91.55
38630;BME280;24384;51.988;4.644;2023-05-22T04:51:39;101580.09;;;14.40;92.00
38630;BME280;24384;51.988;4.644;2023-05-22T04:54:04;101586.25;;;14.40;91.90
38630;BME280;24384;51.988;4.644;2023-05-22T04:56:30;101591.63;;;14.39;92.80
38630;BME280;24384;51.988;4.644;2023-05-22T04:58:56;101591.56;;;14.40;92.05
38630;BME280;24384;51.988;4.644;2023-05-22T05:01:21;101598.34;;;14.49;92.50
38630;BME280;24384;51.988;4.644;2023-05-22T05:03:47;101606.78;;;14.60;92.27
38630;BME280;24384;51.988;4.644;2023-05-22T05:06:12;101600.88;;;14.76;90.78
38630;BME280;24384;51.988;4.644;2023-05-22T05:08:38;101597.63;;;14.91;89.89
38630;BME280;24384;51.988;4.644;2023-05-22T05:11:03;101598.50;;;14.92;89.84
38630;BME280;24384;51.988;4.644;2023-05-22T05:13:28;101598.88;;;15.04;88.59
38630;BME280;24384;51.988;4.644;2023-05-22T05:15:57;101600.47;;;15.09;88.64
38630;BME280;24384;51.988;4.644;2023-05-22T05:18:22;101593.38;;;15.09;89.11
38630;BME280;24384;51.988;4.644;2023-05-22T05:20:48;101604.56;;;15.17;88.76
38630;BME280;24384;51.988;4.644;2023-05-22T05:23:13;101607.59;;;15.08;89.60
38630;BME280;24384;51.988;4.644;2023-05-22T05:25:40;101611.63;;;15.18;88.35
38630;BME280;24384;51.988;4.644;2023-05-22T05:28:07;101609.44;;;15.28;88.40
38630;BME280;24384;51.988;4.644;2023-05-22T05:30:39;101609.94;;;15.38;88.26
38630;BME280;24384;51.988;4.644;2023-05-22T05:33:05;101608.94;;;15.40;87.74
38630;BME280;24384;51.988;4.644;2023-05-22T05:35:31;101608.66;;;15.26;88.14
38630;BME280;24384;51.988;4.644;2023-05-22T05:37:56;101612.41;;;15.20;88.08
38630;BME280;24384;51.988;4.644;2023-05-22T05:40:22;101617.38;;;15.08;88.32
38630;BME280;24384;51.988;4.644;2023-05-22T05:42:49;101621.31;;;15.19;87.75
38630;BME280;24384;51.988;4.644;2023-05-22T05:45:14;101614.81;;;15.27;87.90
38630;BME280;24384;51.988;4.644;2023-05-22T05:47:40;101617.00;;;15.17;88.28
38630;BME280;24384;51.988;4.644;2023-05-22T05:50:05;101619.53;;;15.20;89.36
38630;BME280;24384;51.988;4.644;2023-05-22T05:52:31;101616.38;;;15.32;88.33
38630;BME280;24384;51.988;4.644;2023-05-22T05:54:58;101615.38;;;15.57;87.74
38630;BME280;24384;51.988;4.644;2023-05-22T05:57:28;101613.31;;;15.64;88.26
38630;BME280;24384;51.988;4.644;2023-05-22T05:59:53;101624.78;;;15.86;87.54
38630;BME280;24384;51.988;4.644;2023-05-22T06:02:19;101620.88;;;15.95;85.66
38630;BME280;24384;51.988;4.644;2023-05-22T06:04:44;101619.47;;;16.07;85.46
38630;BME280;24384;51.988;4.644;2023-05-22T06:07:15;101628.97;;;16.13;85.30
38630;BME280;24384;51.988;4.644;2023-05-22T06:09:41;101640.16;;;16.21;84.27
38630;BME280;24384;51.988;4.644;2023-05-22T06:12:06;101622.19;;;16.26;83.69
38630;BME280;24384;51.988;4.644;2023-05-22T06:14:36;101645.06;;;16.30;84.09
38630;BME280;24384;51.988;4.644;2023-05-22T06:17:02;101636.53;;;16.42;83.66
38630;BME280;24384;51.988;4.644;2023-05-22T06:19:27;101629.50;;;16.60;82.52
38630;BME280;24384;51.988;4.644;2023-05-22T06:21:52;101634.81;;;16.41;82.91
38630;BME280;24384;51.988;4.644;2023-05-22T06:24:18;101653.44;;;16.41;82.93
38630;BME280;24384;51.988;4.644;2023-05-22T06:26:44;101643.91;;;16.36;83.24
38630;BME280;24384;51.988;4.644;2023-05-22T06:29:09;101651.69;;;16.40;82.83
38630;BME280;24384;51.988;4.644;2023-05-22T06:31:35;101653.13;;;16.28;83.26
38630;BME280;24384;51.988;4.644;2023-05-22T06:34:02;101651.78;;;16.18;84.01
38630;BME280;24384;51.988;4.644;2023-05-22T06:36:27;101648.88;;;16.24;84.00
38630;BME280;24384;51.988;4.644;2023-05-22T06:38:53;101656.31;;;16.37;84.22
38630;BME280;24384;51.988;4.644;2023-05-22T06:41:18;101648.72;;;16.27;85.13
38630;BME280;24384;51.988;4.644;2023-05-22T06:43:44;101652.53;;;16.42;85.15
38630;BME280;24384;51.988;4.644;2023-05-22T06:46:09;101656.47;;;16.53;84.39
38630;BME280;24384;51.988;4.644;2023-05-22T06:48:34;101650.75;;;16.22;85.23
38630;BME280;24384;51.988;4.644;2023-05-22T06:51:00;101663.16;;;16.42;84.44
38630;BME280;24384;51.988;4.644;2023-05-22T06:53:25;101655.91;;;16.46;85.10
38630;BME280;24384;51.988;4.644;2023-05-22T06:55:51;101653.59;;;16.57;85.39
38630;BME280;24384;51.988;4.644;2023-05-22T06:58:16;101646.38;;;16.40;85.09
38630;BME280;24384;51.988;4.644;2023-05-22T07:00:42;101652.75;;;16.57;84.82
38630;BME280;24384;51.988;4.644;2023-05-22T07:03:07;101653.44;;;16.41;85.70
38630;BME280;24384;51.988;4.644;2023-05-22T07:05:32;101647.41;;;16.38;86.86
38630;BME280;24384;51.988;4.644;2023-05-22T07:07:57;101649.38;;;16.53;85.52
38630;BME280;24384;51.988;4.644;2023-05-22T07:10:23;101651.34;;;16.69;84.90
38630;BME280;24384;51.988;4.644;2023-05-22T07:12:51;101653.53;;;16.59;85.57
38630;BME280;24384;51.988;4.644;2023-05-22T07:15:18;101657.38;;;16.72;84.58
38630;BME280;24384;51.988;4.644;2023-05-22T07:17:45;101664.31;;;16.56;85.07
38630;BME280;24384;51.988;4.644;2023-05-22T07:20:10;101669.22;;;16.65;84.30
38630;BME280;24384;51.988;4.644;2023-05-22T07:22:36;101664.25;;;16.57;85.15
38630;BME280;24384;51.988;4.644;2023-05-22T07:25:02;101674.06;;;16.57;85.11
38630;BME280;24384;51.988;4.644;2023-05-22T07:27:27;101671.47;;;16.74;85.04
38630;BME280;24384;51.988;4.644;2023-05-22T07:29:52;101673.84;;;17.01;84.05
38630;BME280;24384;51.988;4.644;2023-05-22T07:32:17;101673.72;;;17.04;84.41
38630;BME280;24384;51.988;4.644;2023-05-22T07:34:43;101668.81;;;16.95;84.34
38630;BME280;24384;51.988;4.644;2023-05-22T07:37:11;101673.16;;;17.34;83.57
38630;BME280;24384;51.988;4.644;2023-05-22T07:39:36;101669.06;;;17.46;82.82
38630;BME280;24384;51.988;4.644;2023-05-22T07:42:01;101662.16;;;17.59;83.84
38630;BME280;24384;51.988;4.644;2023-05-22T07:44:30;101665.94;;;18.09;81.34
38630;BME280;24384;51.988;4.644;2023-05-22T07:46:56;101672.56;;;18.18;80.70
38630;BME280;24384;51.988;4.644;2023-05-22T07:49:22;101661.41;;;18.45;80.26
38630;BME280;24384;51.988;4.644;2023-05-22T07:51:48;101671.72;;;18.84;79.31
38630;BME280;24384;51.988;4.644;2023-05-22T07:54:13;101671.63;;;19.03;77.93
38630;BME280;24384;51.988;4.644;2023-05-22T07:56:42;101666.19;;;19.37;75.74
38630;BME280;24384;51.988;4.644;2023-05-22T07:59:07;101667.88;;;19.54;76.25
38630;BME280;24384;51.988;4.644;2023-05-22T08:01:35;101670.75;;;19.35;75.71
38630;BME280;24384;51.988;4.644;2023-05-22T08:04:02;101677.47;;;19.58;76.84
38630;BME280;24384;51.988;4.644;2023-05-22T08:06:28;101669.53;;;19.56;75.82
38630;BME280;24384;51.988;4.644;2023-05-22T08:08:54;101668.25;;;19.31;76.32
38630;BME280;24384;51.988;4.644;2023-05-22T08:11:20;101659.53;;;19.44;75.35
38630;BME280;24384;51.988;4.644;2023-05-22T08:13:45;101672.47;;;19.52;75.80
38630;BME280;24384;51.988;4.644;2023-05-22T08:16:11;101675.22;;;19.82;75.85
38630;BME280;24384;51.988;4.644;2023-05-22T08:18:36;101676.81;;;20.15;74.21
38630;BME280;24384;51.988;4.644;2023-05-22T08:21:01;101669.97;;;20.25;72.90
38630;BME280;24384;51.988;4.644;2023-05-22T08:23:27;101668.06;;;20.42;72.85
38630;BME280;24384;51.988;4.644;2023-05-22T08:25:52;101671.16;;;20.79;73.10
38630;BME280;24384;51.988;4.644;2023-05-22T08:28:18;101667.31;;;20.97;70.46
38630;BME280;24384;51.988;4.644;2023-05-22T08:30:43;101665.31;;;21.28;69.39
38630;BME280;24384;51.988;4.644;2023-05-22T08:33:08;101667.75;;;21.18;68.91
38630;BME280;24384;51.988;4.644;2023-05-22T08:35:34;101661.28;;;21.35;69.11
38630;BME280;24384;51.988;4.644;2023-05-22T08:37:59;101663.03;;;21.22;69.63
38630;BME280;24384;51.988;4.644;2023-05-22T08:40:33;101654.63;;;21.41;69.16
38630;BME280;24384;51.988;4.644;2023-05-22T08:42:59;101648.38;;;21.27;68.57
38630;BME280;24384;51.988;4.644;2023-05-22T08:45:25;101654.13;;;21.21;70.42
38630;BME280;24384;51.988;4.644;2023-05-22T08:47:53;101650.97;;;21.15;71.19
38630;BME280;24384;51.988;4.644;2023-05-22T08:50:19;101646.00;;;21.50;68.75
38630;BME280;24384;51.988;4.644;2023-05-22T08:52:54;101637.34;;;21.59;70.29
38630;BME280;24384;51.988;4.644;2023-05-22T08:55:21;101645.16;;;21.90;67.78
38630;BME280;24384;51.988;4.644;2023-05-22T08:57:48;101642.25;;;21.53;70.80
38630;BME280;24384;51.988;4.644;2023-05-22T09:00:14;101645.66;;;21.82;70.13
38630;BME280;24384;51.988;4.644;2023-05-22T09:02:41;101644.75;;;22.22;68.04
38630;BME280;24384;51.988;4.644;2023-05-22T09:05:07;101645.53;;;22.49;66.63
38630;BME280;24384;51.988;4.644;2023-05-22T09:07:33;101633.72;;;22.89;66.47
38630;BME280;24384;51.988;4.644;2023-05-22T09:09:58;101639.41;;;23.10;64.46
38630;BME280;24384;51.988;4.644;2023-05-22T09:12:25;101636.44;;;23.50;64.69
38630;BME280;24384;51.988;4.644;2023-05-22T09:14:51;101635.88;;;23.93;62.61
38630;BME280;24384;51.988;4.644;2023-05-22T09:17:17;101632.47;;;24.03;59.93
38630;BME280;24384;51.988;4.644;2023-05-22T09:19:45;101627.94;;;24.03;61.96
38630;BME280;24384;51.988;4.644;2023-05-22T09:22:11;101636.53;;;24.08;61.49
38630;BME280;24384;51.988;4.644;2023-05-22T09:24:37;101638.41;;;24.30;60.42
38630;BME280;24384;51.988;4.644;2023-05-22T09:27:05;101640.88;;;24.67;60.39
38630;BME280;24384;51.988;4.644;2023-05-22T09:29:30;101634.34;;;24.93;57.67
38630;BME280;24384;51.988;4.644;2023-05-22T09:31:58;101637.19;;;24.46;58.96
38630;BME280;24384;51.988;4.644;2023-05-22T09:34:27;101628.56;;;24.97;59.59
38630;BME280;24384;51.988;4.644;2023-05-22T09:36:53;101638.28;;;25.00;58.00
38630;BME280;24384;51.988;4.644;2023-05-22T09:39:25;101628.81;;;25.06;59.62
38630;BME280;24384;51.988;4.644;2023-05-22T09:41:53;101634.16;;;25.40;58.68
38630;BME280;24384;51.988;4.644;2023-05-22T09:44:18;101638.13;;;25.13;60.75
38630;BME280;24384;51.988;4.644;2023-05-22T09:46:45;101630.97;;;25.34;58.38
38630;BME280;24384;51.988;4.644;2023-05-22T09:49:10;101634.13;;;25.72;56.75
38630;BME280;24384;51.988;4.644;2023-05-22T09:51:38;101628.47;;;25.96;54.96
38630;BME280;24384;51.988;4.644;2023-05-22T09:54:06;101635.84;;;25.94;55.92
38630;BME280;24384;51.988;4.644;2023-05-22T09:56:34;101628.22;;;25.78;56.10
38630;BME280;24384;51.988;4.644;2023-05-22T09:59:00;101626.53;;;25.98;56.05
38630;BME280;24384;51.988;4.644;2023-05-22T10:01:26;101625.03;;;25.94;58.45
38630;BME280;24384;51.988;4.644;2023-05-22T10:03:54;101624.91;;;25.96;58.27
38630;BME280;24384;51.988;4.644;2023-05-22T10:06:22;101614.97;;;26.17;57.17
38630;BME280;24384;51.988;4.644;2023-05-22T10:08:53;101624.88;;;26.69;56.59
38630;BME280;24384;51.988;4.644;2023-05-22T10:11:21;101621.97;;;26.91;55.00
38630;BME280;24384;51.988;4.644;2023-05-22T10:13:48;101625.81;;;26.89;53.57
38630;BME280;24384;51.988;4.644;2023-05-22T10:16:15;101622.81;;;26.92;54.19
38630;BME280;24384;51.988;4.644;2023-05-22T10:18:44;101627.34;;;26.51;55.13
38630;BME280;24384;51.988;4.644;2023-05-22T10:21:10;101631.59;;;26.13;55.69
38630;BME280;24384;51.988;4.644;2023-05-22T10:23:37;101630.59;;;26.44;54.07
38630;BME280;24384;51.988;4.644;2023-05-22T10:26:03;101632.47;;;26.54;54.88
38630;BME280;24384;51.988;4.644;2023-05-22T10:28:38;101620.66;;;26.86;53.18
38630;BME280;24384;51.988;4.644;2023-05-22T10:31:28;101622.19;;;27.39;52.75
38630;BME280;24384;51.988;4.644;2023-05-22T10:33:59;101616.50;;;27.61;50.31
38630;BME280;24384;51.988;4.644;2023-05-22T10:41:40;101609.06;;;27.83;51.11
38630;BME280;24384;51.988;4.644;2023-05-22T10:44:05;101611.34;;;27.68;51.38
38630;BME280;24384;51.988;4.644;2023-05-22T10:46:31;101614.22;;;27.57;50.77
38630;BME280;24384;51.988;4.644;2023-05-22T10:49:00;101612.06;;;27.70;50.03
38630;BME280;24384;51.988;4.644;2023-05-22T10:51:25;101606.81;;;27.68;51.73
38630;BME280;24384;51.988;4.644;2023-05-22T10:53:52;101607.34;;;27.72;50.54
38630;BME280;24384;51.988;4.644;2023-05-22T10:56:21;101611.78;;;27.63;50.59
38630;BME280;24384;51.988;4.644;2023-05-22T10:58:58;101604.19;;;27.28;52.20
38630;BME280;24384;51.988;4.644;2023-05-22T11:01:27;101595.09;;;27.29;50.75
38630;BME280;24384;51.988;4.644;2023-05-22T11:03:53;101599.25;;;27.33;51.32
38630;BME280;24384;51.988;4.644;2023-05-22T11:09:38;101598.81;;;27.47;51.58
38630;BME280;24384;51.988;4.644;2023-05-22T11:12:24;101596.34;;;27.83;49.55
38630;BME280;24384;51.988;4.644;2023-05-22T11:14:58;101606.06;;;27.76;49.95
38630;BME280;24384;51.988;4.644;2023-05-22T11:17:27;101591.50;;;27.19;51.28
38630;BME280;24384;51.988;4.644;2023-05-22T11:20:23;101591.59;;;26.37;53.89
38630;BME280;24384;51.988;4.644;2023-05-22T11:22:55;101597.00;;;26.37;53.75
38630;BME280;24384;51.988;4.644;2023-05-22T11:25:21;101592.66;;;26.25;56.36
38630;BME280;24384;51.988;4.644;2023-05-22T11:27:47;101592.72;;;26.44;54.90
38630;BME280;24384;51.988;4.644;2023-05-22T11:30:13;101587.91;;;26.89;53.83
38630;BME280;24384;51.988;4.644;2023-05-22T11:32:40;101589.78;;;26.98;55.17
38630;BME280;24384;51.988;4.644;2023-05-22T11:35:12;101583.97;;;27.22;53.48
38630;BME280;24384;51.988;4.644;2023-05-22T11:37:39;101586.66;;;27.03;55.23
38630;BME280;24384;51.988;4.644;2023-05-22T11:40:05;101587.81;;;27.10;51.36
38630;BME280;24384;51.988;4.644;2023-05-22T11:42:30;101588.94;;;27.07;53.68
38630;BME280;24384;51.988;4.644;2023-05-22T11:44:56;101592.34;;;27.09;51.73
38630;BME280;24384;51.988;4.644;2023-05-22T11:47:21;101598.88;;;26.77;51.81
38630;BME280;24384;51.988;4.644;2023-05-22T11:49:47;101583.22;;;26.91;53.42
38630;BME280;24384;51.988;4.644;2023-05-22T11:52:15;101580.47;;;26.71;52.95
38630;BME280;24384;51.988;4.644;2023-05-22T11:54:44;101595.44;;;26.75;53.49
38630;BME280;24384;51.988;4.644;2023-05-22T11:57:10;101598.31;;;26.84;52.60
38630;BME280;24384;51.988;4.644;2023-05-22T11:59:35;101593.47;;;26.77;52.54
38630;BME280;24384;51.988;4.644;2023-05-22T12:02:00;101596.50;;;26.63;52.36
38630;BME280;24384;51.988;4.644;2023-05-22T12:04:26;101605.75;;;26.91;53.59
38630;BME280;24384;51.988;4.644;2023-05-22T12:06:52;101601.78;;;27.05;53.63
38630;BME280;24384;51.988;4.644;2023-05-22T12:09:18;101607.84;;;26.47;52.86
38630;BME280;24384;51.988;4.644;2023-05-22T12:11:47;101608.78;;;26.36;52.60
38630;BME280;24384;51.988;4.644;2023-05-22T12:14:12;101601.09;;;26.32;52.41
38630;BME280;24384;51.988;4.644;2023-05-22T12:16:38;101607.63;;;26.29;55.72
38630;BME280;24384;51.988;4.644;2023-05-22T12:19:07;101609.16;;;26.22;52.30
38630;BME280;24384;51.988;4.644;2023-05-22T12:21:33;101610.91;;;26.33;55.13
38630;BME280;24384;51.988;4.644;2023-05-22T12:24:04;101610.50;;;26.37;54.07
38630;BME280;24384;51.988;4.644;2023-05-22T12:26:31;101613.03;;;25.98;55.10
38630;BME280;24384;51.988;4.644;2023-05-22T12:29:00;101615.78;;;26.08;55.62
38630;BME280;24384;51.988;4.644;2023-05-22T12:31:25;101614.09;;;25.96;53.33
38630;BME280;24384;51.988;4.644;2023-05-22T12:33:55;101619.44;;;26.07;55.65
38630;BME280;24384;51.988;4.644;2023-05-22T12:36:30;101613.38;;;26.15;55.71
38630;BME280;24384;51.988;4.644;2023-05-22T12:38:56;101618.59;;;26.27;54.28
38630;BME280;24384;51.988;4.644;2023-05-22T12:41:21;101610.44;;;26.58;53.01
38630;BME280;24384;51.988;4.644;2023-05-22T12:43:47;101617.44;;;27.11;53.36
38630;BME280;24384;51.988;4.644;2023-05-22T12:46:13;101611.38;;;26.78;53.67
38630;BME280;24384;51.988;4.644;2023-05-22T12:48:38;101622.41;;;26.56;52.25
38630;BME280;24384;51.988;4.644;2023-05-22T12:51:03;101624.78;;;26.49;52.81
38630;BME280;24384;51.988;4.644;2023-05-22T12:53:29;101623.56;;;26.01;54.06
38630;BME280;24384;51.988;4.644;2023-05-22T12:55:54;101632.28;;;26.36;52.89
38630;BME280;24384;51.988;4.644;2023-05-22T12:58:19;101624.41;;;26.63;52.52
38630;BME280;24384;51.988;4.644;2023-05-22T13:00:45;101639.25;;;27.10;51.59
38630;BME280;24384;51.988;4.644;2023-05-22T13:03:10;101640.28;;;26.68;52.65
38630;BME280;24384;51.988;4.644;2023-05-22T13:05:36;101638.16;;;26.82;52.09
38630;BME280;24384;51.988;4.644;2023-05-22T13:08:01;101641.53;;;27.14;53.37
38630;BME280;24384;51.988;4.644;2023-05-22T13:10:27;101634.97;;;27.17;50.17
38630;BME280;24384;51.988;4.644;2023-05-22T13:12:52;101639.25;;;27.29;50.18